Category: образование

Category was added automatically. Read all entries about "образование".

smile

В четверг четвертого числа...

Точнее в пятницу субботу 13го...

Вот такой прогноз ждал меня сегодня перед выходом на IR/ME skills test:
LMML 130645Z 13022KT 9999 BKN008 23/20 Q1015 NOSIG

Натуральный такой IMC. На 5000 футов ветер 140/20, на 10000 - 360/10. Поколбасит определенно.

Удивляюсь, что не было извержения вулкана, как когда я улетала пару недель назад, или, например, забастовки диспетчеров, как в день моего CPL skills test. Только сильный ветер строго по благоразумно выбранной полосе 13, да мысли о том, что надо бы не забыть, что будет сдувать нафиг при полете по SID.


Collapse )
smile

Написано в самолете. Отрывочные воспоминания о прошедших четырех днях.

Поезд до Брюсселя. AirFrance пересадил на рейс, отправляющийся на час сорок раньше, чем тот, что я бронировала. Не надо ждать, ура! В Брюсселе внезапно оказывается, что инструкции до отеля не от того вокзала. Приходится ориентироваться по указателям и ехать на метро. Может, оно и к лучшему - не надо будет ходить до Северного вокзала специально, чтобы утром не бегать в панике в поисках нужной лестницы. Бельгия прекрасная страна: министерство транспорта сидит в бизнес-центре. Только часть, ответственная за воздушный транспорт, находится на железнодорожном вокзале.



Collapse )